createdAt,value
2022-12-04T00:00:23.898Z,1016.34
2022-12-04T00:01:23.904Z,1016.34
2022-12-04T00:02:23.911Z,1016.32
2022-12-04T00:03:24.024Z,1016.33
2022-12-04T00:04:23.993Z,1016.33
2022-12-04T00:05:23.931Z,1016.35
2022-12-04T00:06:23.938Z,1016.36
2022-12-04T00:07:23.947Z,1016.40
2022-12-04T00:08:23.954Z,1016.42
2022-12-04T00:09:23.958Z,1016.44
2022-12-04T00:10:23.966Z,1016.38
2022-12-04T00:11:23.973Z,1016.38
2022-12-04T00:12:23.980Z,1016.38
2022-12-04T00:13:23.985Z,1016.40
2022-12-04T00:14:23.993Z,1016.43
2022-12-04T00:15:25.706Z,1016.47
2022-12-04T00:16:24.066Z,1016.44
2022-12-04T00:17:24.013Z,1016.46
2022-12-04T00:18:24.024Z,1016.48
2022-12-04T00:19:24.027Z,1016.52
2022-12-04T00:20:24.035Z,1016.48
2022-12-04T00:21:24.040Z,1016.43
2022-12-04T00:22:24.048Z,1016.38
2022-12-04T00:23:24.056Z,1016.37
2022-12-04T00:24:24.062Z,1016.36
2022-12-04T00:25:24.067Z,1016.36
2022-12-04T00:26:24.075Z,1016.33
2022-12-04T00:27:24.095Z,1016.35
2022-12-04T00:28:24.091Z,1016.36
2022-12-04T00:29:24.098Z,1016.36
2022-12-04T00:30:24.102Z,1016.33
2022-12-04T00:31:24.147Z,1016.32
2022-12-04T00:32:24.117Z,1016.33
2022-12-04T00:33:24.124Z,1016.32
2022-12-04T00:34:24.130Z,1016.36
2022-12-04T00:35:24.138Z,1016.34
2022-12-04T00:36:24.152Z,1016.34
2022-12-04T00:37:24.157Z,1016.37
2022-12-04T00:38:24.159Z,1016.30
2022-12-04T00:39:24.165Z,1016.33
2022-12-04T00:40:24.173Z,1016.25
2022-12-04T00:41:24.178Z,1016.24
2022-12-04T00:42:24.184Z,1016.30
2022-12-04T00:43:24.206Z,1016.32
2022-12-04T00:44:24.198Z,1016.27
2022-12-04T00:45:24.282Z,1016.25
2022-12-04T00:46:24.270Z,1016.27
2022-12-04T00:47:24.219Z,1016.27
2022-12-04T00:48:24.228Z,1016.24
2022-12-04T00:49:24.232Z,1016.25
2022-12-04T00:50:24.239Z,1016.26
2022-12-04T00:51:24.249Z,1016.29
2022-12-04T00:52:24.256Z,1016.25
2022-12-04T00:53:24.260Z,1016.28
2022-12-04T00:54:24.269Z,1016.30
2022-12-04T00:55:26.787Z,1016.26
2022-12-04T00:56:24.286Z,1016.28
2022-12-04T00:57:24.288Z,1016.29
2022-12-04T00:58:24.307Z,1016.28
2022-12-04T00:59:24.301Z,1016.28
2022-12-04T01:00:24.309Z,1016.28
2022-12-04T01:01:24.434Z,1016.30
2022-12-04T01:02:24.323Z,1016.28
2022-12-04T01:03:24.370Z,1016.32
2022-12-04T01:04:24.336Z,1016.27
2022-12-04T01:05:24.341Z,1016.27
2022-12-04T01:06:24.350Z,1016.31
2022-12-04T01:07:24.357Z,1016.31
2022-12-04T01:08:24.363Z,1016.30
2022-12-04T01:09:24.372Z,1016.27
2022-12-04T01:10:24.377Z,1016.31
2022-12-04T01:11:24.383Z,1016.29
2022-12-04T01:12:24.392Z,1016.29
2022-12-04T01:13:24.397Z,1016.33
2022-12-04T01:14:24.405Z,1016.29
2022-12-04T01:15:24.411Z,1016.31
2022-12-04T01:16:24.503Z,1016.26
2022-12-04T01:17:24.424Z,1016.28
2022-12-04T01:18:24.434Z,1016.31
2022-12-04T01:19:24.439Z,1016.24
2022-12-04T01:20:24.452Z,1016.26
2022-12-04T01:21:24.452Z,1016.27
2022-12-04T01:22:24.460Z,1016.23
2022-12-04T01:23:24.465Z,1016.29
2022-12-04T01:24:24.474Z,1016.31
2022-12-04T01:25:24.479Z,1016.30
2022-12-04T01:26:24.486Z,1016.29
2022-12-04T01:27:24.493Z,1016.31
2022-12-04T01:28:24.500Z,1016.33
2022-12-04T01:29:24.506Z,1016.34
2022-12-04T01:30:24.515Z,1016.32
2022-12-04T01:31:24.568Z,1016.36
2022-12-04T01:32:24.528Z,1016.29
2022-12-04T01:33:24.533Z,1016.33
2022-12-04T01:34:24.540Z,1016.28
2022-12-04T01:35:24.547Z,1016.21
2022-12-04T01:36:24.561Z,1016.25
2022-12-04T01:37:24.562Z,1016.20
2022-12-04T01:38:24.575Z,1016.27
2022-12-04T01:39:24.576Z,1016.19
2022-12-04T01:40:24.584Z,1016.20
2022-12-04T01:41:24.592Z,1016.17
2022-12-04T01:42:24.596Z,1016.20
2022-12-04T01:43:24.604Z,1016.19
2022-12-04T01:44:24.609Z,1016.18
2022-12-04T01:45:24.754Z,1016.21
2022-12-04T01:46:24.656Z,1016.16
2022-12-04T01:47:24.630Z,1016.11
2022-12-04T01:48:24.640Z,1016.14
2022-12-04T01:49:24.642Z,1016.09
2022-12-04T01:50:24.651Z,1016.08
2022-12-04T01:51:24.656Z,1016.10
2022-12-04T01:52:24.662Z,1016.10
2022-12-04T01:53:24.678Z,1016.04
2022-12-04T01:54:24.754Z,1016.08
2022-12-04T01:55:24.683Z,1016.08
2022-12-04T01:56:24.693Z,1016.13
2022-12-04T01:57:24.697Z,1016.09
2022-12-04T01:58:24.714Z,1016.09
2022-12-04T01:59:24.740Z,1016.09
2022-12-04T02:00:24.720Z,1016.10
2022-12-04T02:01:24.798Z,1016.09
2022-12-04T02:02:24.869Z,1016.09
2022-12-04T02:03:24.744Z,1016.01
2022-12-04T02:04:24.758Z,1016.07
2022-12-04T02:05:24.756Z,1016.07
2022-12-04T02:06:24.757Z,1016.04
2022-12-04T02:07:24.775Z,1015.99
2022-12-04T02:08:24.788Z,1016.10
2022-12-04T02:09:26.702Z,1016.07
2022-12-04T02:10:24.811Z,1016.07
2022-12-04T02:11:24.794Z,1016.05
2022-12-04T02:12:24.802Z,1016.06
2022-12-04T02:13:24.808Z,1016.05
2022-12-04T02:14:24.815Z,1015.97
2022-12-04T02:15:24.845Z,1015.96
2022-12-04T02:16:24.924Z,1015.91
2022-12-04T02:17:24.836Z,1015.90
2022-12-04T02:18:24.854Z,1015.89
2022-12-04T02:19:24.853Z,1015.90
2022-12-04T02:20:24.855Z,1015.94
2022-12-04T02:21:24.861Z,1015.95
2022-12-04T02:22:24.868Z,1015.91
2022-12-04T02:23:24.874Z,1015.91
2022-12-04T02:24:24.883Z,1015.96
2022-12-04T02:25:24.891Z,1015.90
2022-12-04T02:26:24.897Z,1015.91
2022-12-04T02:27:24.904Z,1015.87
2022-12-04T02:28:24.909Z,1015.90
2022-12-04T02:29:24.916Z,1015.86
2022-12-04T02:30:24.970Z,1015.88
2022-12-04T02:31:25.013Z,1015.89
2022-12-04T02:32:24.937Z,1015.90
2022-12-04T02:33:24.944Z,1015.88
2022-12-04T02:34:24.950Z,1015.82
2022-12-04T02:35:24.958Z,1015.85
2022-12-04T02:36:24.973Z,1015.84
2022-12-04T02:37:24.970Z,1015.85
2022-12-04T02:38:24.979Z,1015.80
2022-12-04T02:39:24.987Z,1015.84
2022-12-04T02:40:24.993Z,1015.82
2022-12-04T02:41:24.998Z,1015.84
2022-12-04T02:42:25.007Z,1015.81
2022-12-04T02:43:25.016Z,1015.84
2022-12-04T02:44:25.019Z,1015.85
2022-12-04T02:45:25.024Z,1015.85
2022-12-04T02:46:25.112Z,1015.82
2022-12-04T02:47:25.039Z,1015.79
2022-12-04T02:48:25.045Z,1015.77
2022-12-04T02:49:25.051Z,1015.72
2022-12-04T02:50:25.061Z,1015.72
2022-12-04T02:51:25.068Z,1015.67
2022-12-04T02:52:25.075Z,1015.68
2022-12-04T02:53:25.077Z,1015.69
2022-12-04T02:54:25.087Z,1015.68
2022-12-04T02:55:25.093Z,1015.66
2022-12-04T02:56:25.099Z,1015.59
2022-12-04T02:57:25.106Z,1015.58
2022-12-04T02:58:25.112Z,1015.56
2022-12-04T02:59:25.121Z,1015.58
2022-12-04T03:00:25.126Z,1015.62
2022-12-04T03:01:25.214Z,1015.58
2022-12-04T03:02:25.215Z,1015.57
2022-12-04T03:03:25.149Z,1015.58
2022-12-04T03:04:25.154Z,1015.56
2022-12-04T03:05:25.159Z,1015.53
2022-12-04T03:06:25.166Z,1015.49
2022-12-04T03:07:25.175Z,1015.50
2022-12-04T03:08:25.179Z,1015.45
2022-12-04T03:09:25.186Z,1015.47
2022-12-04T03:10:25.193Z,1015.48
2022-12-04T03:11:25.200Z,1015.51
2022-12-04T03:12:25.209Z,1015.52
2022-12-04T03:13:25.214Z,1015.54
2022-12-04T03:14:25.225Z,1015.60
2022-12-04T03:15:25.227Z,1015.57
2022-12-04T03:16:25.277Z,1015.60
2022-12-04T03:17:25.242Z,1015.60
2022-12-04T03:18:25.250Z,1015.56
2022-12-04T03:19:25.254Z,1015.60
2022-12-04T03:20:25.262Z,1015.60
2022-12-04T03:21:25.275Z,1015.53
2022-12-04T03:22:25.279Z,1015.53
2022-12-04T03:23:25.281Z,1015.57
2022-12-04T03:24:25.291Z,1015.54
2022-12-04T03:25:25.299Z,1015.54
2022-12-04T03:26:25.303Z,1015.58
2022-12-04T03:27:25.312Z,1015.62
2022-12-04T03:28:25.317Z,1015.58
2022-12-04T03:29:25.324Z,1015.55
2022-12-04T03:30:25.400Z,1015.51
2022-12-04T03:31:25.417Z,1015.51
2022-12-04T03:32:25.346Z,1015.48
2022-12-04T03:33:25.353Z,1015.50
2022-12-04T03:34:25.358Z,1015.46
2022-12-04T03:35:25.365Z,1015.51
2022-12-04T03:36:25.379Z,1015.52
2022-12-04T03:37:25.883Z,1015.55
2022-12-04T03:38:25.384Z,1015.53
2022-12-04T03:39:25.394Z,1015.59
2022-12-04T03:40:25.400Z,1015.60
2022-12-04T03:41:25.404Z,1015.59
2022-12-04T03:42:25.410Z,1015.63
2022-12-04T03:43:25.418Z,1015.66
2022-12-04T03:44:25.426Z,1015.64
2022-12-04T03:45:25.431Z,1015.61
2022-12-04T03:46:25.475Z,1015.61
2022-12-04T03:47:25.446Z,1015.61
2022-12-04T03:48:25.454Z,1015.67
2022-12-04T03:49:25.459Z,1015.60
2022-12-04T03:50:25.467Z,1015.60
2022-12-04T03:51:25.474Z,1015.59
2022-12-04T03:52:25.482Z,1015.57
2022-12-04T03:53:25.489Z,1015.50
2022-12-04T03:54:25.495Z,1015.52
2022-12-04T03:55:25.506Z,1015.54
2022-12-04T03:56:25.512Z,1015.54
2022-12-04T03:57:25.514Z,1015.56
2022-12-04T03:58:25.524Z,1015.53
2022-12-04T03:59:25.529Z,1015.49
2022-12-04T04:00:25.537Z,1015.55
2022-12-04T04:01:25.588Z,1015.52
2022-12-04T04:02:25.594Z,1015.49
2022-12-04T04:03:25.557Z,1015.44
2022-12-04T04:04:25.563Z,1015.47
2022-12-04T04:05:25.571Z,1015.46
2022-12-04T04:06:25.576Z,1015.44
2022-12-04T04:07:29.059Z,1015.44
2022-12-04T04:08:25.632Z,1015.45
2022-12-04T04:09:25.599Z,1015.46
2022-12-04T04:10:25.605Z,1015.40
2022-12-04T04:11:25.610Z,1015.48
2022-12-04T04:12:25.618Z,1015.41
2022-12-04T04:13:25.628Z,1015.44
2022-12-04T04:14:25.637Z,1015.44
2022-12-04T04:15:25.675Z,1015.45
2022-12-04T04:16:25.668Z,1015.48
2022-12-04T04:17:25.652Z,1015.51
2022-12-04T04:18:25.661Z,1015.49
2022-12-04T04:19:25.667Z,1015.49
2022-12-04T04:20:25.674Z,1015.47
2022-12-04T04:21:25.686Z,1015.42
2022-12-04T04:22:25.690Z,1015.46
2022-12-04T04:23:25.701Z,1015.44
2022-12-04T04:24:25.722Z,1015.41
2022-12-04T04:25:25.713Z,1015.42
2022-12-04T04:26:25.715Z,1015.44
2022-12-04T04:27:25.723Z,1015.42
2022-12-04T04:28:25.734Z,1015.45
2022-12-04T04:29:25.739Z,1015.36
2022-12-04T04:30:25.743Z,1015.37
2022-12-04T04:31:25.805Z,1015.44
2022-12-04T04:32:25.758Z,1015.43
2022-12-04T04:33:25.768Z,1015.39
2022-12-04T04:34:25.773Z,1015.39
2022-12-04T04:35:25.778Z,1015.36
2022-12-04T04:36:25.787Z,1015.36
2022-12-04T04:37:25.792Z,1015.34
2022-12-04T04:38:25.801Z,1015.32
2022-12-04T04:39:25.808Z,1015.37
2022-12-04T04:40:25.815Z,1015.35
2022-12-04T04:41:25.821Z,1015.36
2022-12-04T04:42:25.827Z,1015.34
2022-12-04T04:43:25.834Z,1015.34
2022-12-04T04:44:25.841Z,1015.35
2022-12-04T04:45:25.847Z,1015.33
2022-12-04T04:46:25.890Z,1015.42
2022-12-04T04:47:25.866Z,1015.34
2022-12-04T04:48:25.875Z,1015.40
2022-12-04T04:49:25.875Z,1015.44
2022-12-04T04:50:25.885Z,1015.45
2022-12-04T04:51:25.888Z,1015.45
2022-12-04T04:52:25.897Z,1015.47
2022-12-04T04:53:25.908Z,1015.45
2022-12-04T04:54:25.909Z,1015.46
2022-12-04T04:55:25.917Z,1015.41
2022-12-04T04:56:25.928Z,1015.39
2022-12-04T04:57:25.930Z,1015.34
2022-12-04T04:58:25.936Z,1015.42
2022-12-04T04:59:25.945Z,1015.38
2022-12-04T05:00:25.951Z,1015.33
2022-12-04T05:01:26.029Z,1015.34
2022-12-04T05:02:25.992Z,1015.33
2022-12-04T05:03:26.065Z,1015.38
2022-12-04T05:04:25.979Z,1015.37
2022-12-04T05:05:25.988Z,1015.38
2022-12-04T05:06:25.996Z,1015.44
2022-12-04T05:07:26.000Z,1015.42
2022-12-04T05:08:26.009Z,1015.42
2022-12-04T05:09:26.015Z,1015.42
2022-12-04T05:10:26.021Z,1015.40
2022-12-04T05:11:26.032Z,1015.34
2022-12-04T05:12:26.034Z,1015.36
2022-12-04T05:13:26.043Z,1015.38
2022-12-04T05:14:26.048Z,1015.42
2022-12-04T05:15:26.057Z,1015.43
2022-12-04T05:16:26.145Z,1015.39
2022-12-04T05:17:26.070Z,1015.43
2022-12-04T05:18:26.077Z,1015.41
2022-12-04T05:19:26.083Z,1015.46
2022-12-04T05:20:26.089Z,1015.43
2022-12-04T05:21:26.096Z,1015.45
2022-12-04T05:22:26.108Z,1015.41
2022-12-04T05:23:26.113Z,1015.45
2022-12-04T05:24:26.118Z,1015.44
2022-12-04T05:25:26.124Z,1015.44
2022-12-04T05:26:26.131Z,1015.43
2022-12-04T05:27:26.140Z,1015.44
2022-12-04T05:28:26.147Z,1015.35
2022-12-04T05:29:26.154Z,1015.36
2022-12-04T05:30:26.162Z,1015.37
2022-12-04T05:31:26.210Z,1015.37
2022-12-04T05:32:26.176Z,1015.36
2022-12-04T05:33:26.182Z,1015.38
2022-12-04T05:34:26.189Z,1015.40
2022-12-04T05:35:26.196Z,1015.33
2022-12-04T05:36:26.203Z,1015.31
2022-12-04T05:37:26.263Z,1015.30
2022-12-04T05:38:26.216Z,1015.33
2022-12-04T05:39:26.223Z,1015.34
2022-12-04T05:40:26.231Z,1015.33
2022-12-04T05:41:26.237Z,1015.38
2022-12-04T05:42:26.244Z,1015.35
2022-12-04T05:43:26.260Z,1015.38
2022-12-04T05:44:26.259Z,1015.45
2022-12-04T05:45:26.266Z,1015.46
2022-12-04T05:46:26.306Z,1015.48
2022-12-04T05:47:26.279Z,1015.48
2022-12-04T05:48:26.288Z,1015.50
2022-12-04T05:49:26.293Z,1015.47
2022-12-04T05:50:26.303Z,1015.48
2022-12-04T05:51:26.308Z,1015.49
2022-12-04T05:52:26.317Z,1015.52
2022-12-04T05:53:26.324Z,1015.51
2022-12-04T05:54:26.359Z,1015.44
2022-12-04T05:55:26.336Z,1015.46
2022-12-04T05:56:26.366Z,1015.45
2022-12-04T05:57:29.765Z,1015.44
2022-12-04T05:58:26.372Z,1015.40
2022-12-04T05:59:26.373Z,1015.39
2022-12-04T06:00:26.378Z,1015.35
2022-12-04T06:01:26.380Z,1015.29
2022-12-04T06:02:26.480Z,1015.29
2022-12-04T06:03:26.505Z,1015.31
2022-12-04T06:04:26.400Z,1015.30
2022-12-04T06:05:26.409Z,1015.35
2022-12-04T06:06:26.436Z,1015.36
2022-12-04T06:07:26.620Z,1015.33
2022-12-04T06:08:26.448Z,1015.37
2022-12-04T06:09:26.447Z,1015.36
2022-12-04T06:10:26.443Z,1015.37
2022-12-04T06:11:26.463Z,1015.37
2022-12-04T06:12:26.459Z,1015.41
2022-12-04T06:13:26.471Z,1015.41
2022-12-04T06:14:26.476Z,1015.37
2022-12-04T06:15:26.481Z,1015.33
2022-12-04T06:16:26.545Z,1015.31
2022-12-04T06:17:26.500Z,1015.35
2022-12-04T06:18:26.502Z,1015.36
2022-12-04T06:19:26.512Z,1015.31
2022-12-04T06:20:26.609Z,1015.35
2022-12-04T06:21:26.530Z,1015.37
2022-12-04T06:22:26.530Z,1015.38
2022-12-04T06:23:26.538Z,1015.40
2022-12-04T06:24:26.544Z,1015.36
2022-12-04T06:25:26.552Z,1015.35
2022-12-04T06:26:26.559Z,1015.38
2022-12-04T06:27:28.005Z,1015.40
2022-12-04T06:28:26.578Z,1015.35
2022-12-04T06:29:26.579Z,1015.36
2022-12-04T06:30:26.593Z,1015.34
2022-12-04T06:31:26.691Z,1015.37
2022-12-04T06:32:26.621Z,1015.37
2022-12-04T06:33:26.613Z,1015.37
2022-12-04T06:34:26.624Z,1015.34
2022-12-04T06:35:26.623Z,1015.36
2022-12-04T06:36:26.630Z,1015.38
2022-12-04T06:37:26.668Z,1015.35
2022-12-04T06:38:26.643Z,1015.33
2022-12-04T06:39:26.662Z,1015.35
2022-12-04T06:40:26.670Z,1015.33
2022-12-04T06:41:26.677Z,1015.34
2022-12-04T06:42:26.680Z,1015.33
2022-12-04T06:43:26.681Z,1015.29
2022-12-04T06:44:26.686Z,1015.29
2022-12-04T06:45:26.785Z,1015.32
2022-12-04T06:46:26.755Z,1015.34
2022-12-04T06:47:26.707Z,1015.26
2022-12-04T06:48:26.716Z,1015.28
2022-12-04T06:49:26.723Z,1015.30
2022-12-04T06:50:26.730Z,1015.34
2022-12-04T06:51:26.739Z,1015.43
2022-12-04T06:52:26.743Z,1015.35
2022-12-04T06:53:26.751Z,1015.35
2022-12-04T06:54:26.758Z,1015.37
2022-12-04T06:55:26.768Z,1015.35
2022-12-04T06:56:26.772Z,1015.33
2022-12-04T06:57:26.783Z,1015.35
2022-12-04T06:58:26.789Z,1015.34
2022-12-04T06:59:26.794Z,1015.37
2022-12-04T07:00:26.802Z,1015.33
2022-12-04T07:01:26.829Z,1015.35
2022-12-04T07:02:26.885Z,1015.37
2022-12-04T07:03:26.822Z,1015.37
2022-12-04T07:04:26.833Z,1015.41
2022-12-04T07:05:26.835Z,1015.39
2022-12-04T07:06:26.842Z,1015.37
2022-12-04T07:07:26.946Z,1015.39
2022-12-04T07:08:26.859Z,1015.35
2022-12-04T07:09:26.862Z,1015.39
2022-12-04T07:10:26.874Z,1015.35
2022-12-04T07:11:26.878Z,1015.37
2022-12-04T07:12:26.887Z,1015.36
2022-12-04T07:13:26.892Z,1015.31
2022-12-04T07:14:26.901Z,1015.32
2022-12-04T07:15:26.908Z,1015.32
2022-12-04T07:16:26.984Z,1015.34
2022-12-04T07:17:26.923Z,1015.26
2022-12-04T07:18:26.926Z,1015.30
2022-12-04T07:19:26.938Z,1015.26
2022-12-04T07:20:26.945Z,1015.29
2022-12-04T07:21:26.948Z,1015.30
2022-12-04T07:22:26.958Z,1015.34
2022-12-04T07:23:26.967Z,1015.30
2022-12-04T07:24:26.974Z,1015.35
2022-12-04T07:25:26.978Z,1015.31
2022-12-04T07:26:26.985Z,1015.34
2022-12-04T07:27:26.992Z,1015.37
2022-12-04T07:28:26.999Z,1015.36
2022-12-04T07:29:27.011Z,1015.37
2022-12-04T07:30:27.013Z,1015.40
2022-12-04T07:31:27.081Z,1015.41
2022-12-04T07:32:27.031Z,1015.36
2022-12-04T07:33:27.034Z,1015.34
2022-12-04T07:34:27.042Z,1015.36
2022-12-04T07:35:27.053Z,1015.33
2022-12-04T07:36:27.057Z,1015.29
2022-12-04T07:37:27.064Z,1015.31
2022-12-04T07:38:27.071Z,1015.34
2022-12-04T07:39:27.077Z,1015.31
2022-12-04T07:40:27.084Z,1015.36
2022-12-04T07:41:27.092Z,1015.37
2022-12-04T07:42:27.099Z,1015.41
2022-12-04T07:43:27.112Z,1015.46
2022-12-04T07:44:27.114Z,1015.42
2022-12-04T07:45:27.120Z,1015.46
2022-12-04T07:46:27.245Z,1015.51
2022-12-04T07:47:27.137Z,1015.51
2022-12-04T07:48:33.025Z,1015.52
2022-12-04T07:49:27.153Z,1015.51
2022-12-04T07:50:27.159Z,1015.50
2022-12-04T07:51:27.164Z,1015.48
2022-12-04T07:52:27.172Z,1015.49
2022-12-04T07:53:27.177Z,1015.46
2022-12-04T07:54:27.184Z,1015.42
2022-12-04T07:55:27.194Z,1015.42
2022-12-04T07:56:27.199Z,1015.44
2022-12-04T07:57:27.207Z,1015.48
2022-12-04T07:58:27.213Z,1015.47
2022-12-04T07:59:27.221Z,1015.50
2022-12-04T08:00:27.233Z,1015.53
2022-12-04T08:01:27.315Z,1015.52
2022-12-04T08:02:27.250Z,1015.54
2022-12-04T08:03:27.250Z,1015.58
2022-12-04T08:04:27.308Z,1015.54
2022-12-04T08:05:27.264Z,1015.49
2022-12-04T08:06:27.274Z,1015.56
2022-12-04T08:07:27.353Z,1015.52
2022-12-04T08:08:27.287Z,1015.59
2022-12-04T08:09:27.292Z,1015.55
2022-12-04T08:10:27.313Z,1015.59
2022-12-04T08:11:27.311Z,1015.56
2022-12-04T08:12:27.317Z,1015.58
2022-12-04T08:13:27.324Z,1015.61
2022-12-04T08:14:27.331Z,1015.62
2022-12-04T08:15:27.337Z,1015.64
2022-12-04T08:16:27.381Z,1015.63
2022-12-04T08:17:27.384Z,1015.67
2022-12-04T08:18:27.359Z,1015.63
2022-12-04T08:19:27.367Z,1015.55
2022-12-04T08:20:27.376Z,1015.56
2022-12-04T08:21:27.384Z,1015.52
2022-12-04T08:22:27.390Z,1015.56
2022-12-04T08:23:27.395Z,1015.50
2022-12-04T08:24:27.405Z,1015.51
2022-12-04T08:25:27.411Z,1015.51
2022-12-04T08:26:27.422Z,1015.50
2022-12-04T08:27:27.426Z,1015.55
2022-12-04T08:28:27.433Z,1015.55
2022-12-04T08:29:27.442Z,1015.59
2022-12-04T08:30:27.449Z,1015.60
2022-12-04T08:31:27.575Z,1015.60
2022-12-04T08:32:27.465Z,1015.59
2022-12-04T08:33:27.473Z,1015.62
2022-12-04T08:34:27.478Z,1015.57
2022-12-04T08:35:27.484Z,1015.62
2022-12-04T08:36:27.498Z,1015.67
2022-12-04T08:37:27.504Z,1015.65
2022-12-04T08:38:27.507Z,1015.62
2022-12-04T08:39:27.516Z,1015.64
2022-12-04T08:40:27.523Z,1015.64
2022-12-04T08:41:27.528Z,1015.62
2022-12-04T08:42:27.539Z,1015.61
2022-12-04T08:43:27.544Z,1015.63
2022-12-04T08:44:27.555Z,1015.61
2022-12-04T08:45:27.560Z,1015.64
2022-12-04T08:46:27.697Z,1015.59
2022-12-04T08:47:27.575Z,1015.63
2022-12-04T08:48:27.581Z,1015.63
2022-12-04T08:49:27.590Z,1015.63
2022-12-04T08:50:27.736Z,1015.62
2022-12-04T08:51:27.613Z,1015.58
2022-12-04T08:52:27.612Z,1015.64
2022-12-04T08:53:27.621Z,1015.63
2022-12-04T08:54:30.567Z,1015.63
2022-12-04T08:55:27.638Z,1015.58
2022-12-04T08:56:27.642Z,1015.56
2022-12-04T08:57:27.649Z,1015.57
2022-12-04T08:58:27.656Z,1015.57
2022-12-04T08:59:27.666Z,1015.57
2022-12-04T09:00:27.694Z,1015.55
2022-12-04T09:01:27.766Z,1015.53
2022-12-04T09:02:27.688Z,1015.51
2022-12-04T09:03:30.881Z,1015.48
2022-12-04T09:04:27.727Z,1015.49
2022-12-04T09:05:27.714Z,1015.47
2022-12-04T09:06:27.719Z,1015.47
2022-12-04T09:07:27.787Z,1015.49
2022-12-04T09:08:27.739Z,1015.51
2022-12-04T09:09:27.739Z,1015.54
2022-12-04T09:10:27.797Z,1015.54
2022-12-04T09:11:27.760Z,1015.55
2022-12-04T09:12:27.762Z,1015.54
2022-12-04T09:13:27.770Z,1015.57
2022-12-04T09:14:27.778Z,1015.59
2022-12-04T09:15:27.837Z,1015.58
2022-12-04T09:16:27.883Z,1015.58
2022-12-04T09:17:27.799Z,1015.62
2022-12-04T09:18:27.808Z,1015.64
2022-12-04T09:19:27.816Z,1015.66
2022-12-04T09:20:27.933Z,1015.71
2022-12-04T09:21:27.829Z,1015.76
2022-12-04T09:22:40.373Z,1015.76
2022-12-04T09:23:27.849Z,1015.78
2022-12-04T09:24:27.853Z,1015.79
2022-12-04T09:25:27.861Z,1015.80
2022-12-04T09:26:27.872Z,1015.78
2022-12-04T09:27:27.877Z,1015.76
2022-12-04T09:28:27.884Z,1015.73
2022-12-04T09:29:27.893Z,1015.75
2022-12-04T09:30:27.903Z,1015.74
2022-12-04T09:31:28.041Z,1015.73
2022-12-04T09:32:27.917Z,1015.65
2022-12-04T09:33:27.922Z,1015.67
2022-12-04T09:34:27.931Z,1015.63
2022-12-04T09:35:27.938Z,1015.63
2022-12-04T09:36:27.961Z,1015.59
2022-12-04T09:37:27.954Z,1015.61
2022-12-04T09:38:27.962Z,1015.69
2022-12-04T09:39:27.975Z,1015.66
2022-12-04T09:40:33.740Z,1015.60
2022-12-04T09:41:27.985Z,1015.65
2022-12-04T09:42:27.995Z,1015.65
2022-12-04T09:43:28.005Z,1015.62
2022-12-04T09:44:28.016Z,1015.60
2022-12-04T09:45:28.017Z,1015.53
2022-12-04T09:46:28.083Z,1015.61
2022-12-04T09:47:28.033Z,1015.61
2022-12-04T09:48:28.045Z,1015.59
2022-12-04T09:49:28.054Z,1015.65
2022-12-04T09:50:28.060Z,1015.62
2022-12-04T09:51:28.065Z,1015.57
2022-12-04T09:52:28.075Z,1015.55
2022-12-04T09:53:28.079Z,1015.57
2022-12-04T09:54:28.088Z,1015.59
2022-12-04T09:55:28.102Z,1015.54
2022-12-04T09:56:28.103Z,1015.51
2022-12-04T09:57:28.114Z,1015.54
2022-12-04T09:58:28.120Z,1015.49
2022-12-04T09:59:28.129Z,1015.45
2022-12-04T10:00:28.137Z,1015.48
2022-12-04T10:01:28.145Z,1015.45
2022-12-04T10:02:28.376Z,1015.44
2022-12-04T10:03:28.319Z,1015.41
2022-12-04T10:04:28.170Z,1015.39
2022-12-04T10:05:28.174Z,1015.38
2022-12-04T10:06:28.183Z,1015.38
2022-12-04T10:07:28.281Z,1015.31
2022-12-04T10:08:28.198Z,1015.31
2022-12-04T10:09:28.205Z,1015.30
2022-12-04T10:10:28.213Z,1015.29
2022-12-04T10:11:32.549Z,1015.32
2022-12-04T10:12:28.230Z,1015.29
2022-12-04T10:13:28.240Z,1015.28
2022-12-04T10:14:28.246Z,1015.29
2022-12-04T10:15:28.254Z,1015.26
2022-12-04T10:16:28.347Z,1015.25
2022-12-04T10:17:32.678Z,1015.27
2022-12-04T10:18:28.277Z,1015.23
2022-12-04T10:19:28.287Z,1015.21
2022-12-04T10:20:28.293Z,1015.22
2022-12-04T10:21:28.301Z,1015.14
2022-12-04T10:22:28.308Z,1015.13
2022-12-04T10:23:28.317Z,1015.10
2022-12-04T10:24:28.324Z,1015.12
2022-12-04T10:25:28.334Z,1015.10
2022-12-04T10:26:28.344Z,1015.09
2022-12-04T10:27:28.348Z,1015.08
2022-12-04T10:28:28.357Z,1015.10
2022-12-04T10:29:28.368Z,1015.06
2022-12-04T10:30:28.372Z,1015.06
2022-12-04T10:31:28.504Z,1015.05
2022-12-04T10:32:28.387Z,1015.11
2022-12-04T10:33:28.396Z,1015.06
2022-12-04T10:34:28.403Z,1015.06
2022-12-04T10:35:28.414Z,1015.08
2022-12-04T10:36:28.424Z,1015.07
2022-12-04T10:37:28.430Z,1015.10
2022-12-04T10:38:28.447Z,1015.09
2022-12-04T10:39:28.465Z,1015.08
2022-12-04T10:40:28.462Z,1015.08
2022-12-04T10:41:28.470Z,1015.05
2022-12-04T10:42:28.476Z,1015.04
2022-12-04T10:43:28.477Z,1015.05
2022-12-04T10:44:28.484Z,1015.07
2022-12-04T10:45:28.501Z,1015.02
2022-12-04T10:46:28.574Z,1015.00
2022-12-04T10:47:28.513Z,1015.03
2022-12-04T10:48:28.525Z,1014.96
2022-12-04T10:49:28.527Z,1014.96
2022-12-04T10:50:28.533Z,1014.91
2022-12-04T10:51:28.540Z,1015.00
2022-12-04T10:52:28.550Z,1015.01
2022-12-04T10:53:28.555Z,1014.99
2022-12-04T10:54:28.565Z,1015.01
2022-12-04T10:55:28.571Z,1015.00
2022-12-04T10:56:28.602Z,1015.01
2022-12-04T10:57:28.591Z,1015.03
2022-12-04T10:58:28.597Z,1014.99
2022-12-04T10:59:28.605Z,1015.02
2022-12-04T11:00:28.613Z,1015.01
2022-12-04T11:01:28.661Z,1015.00
2022-12-04T11:02:28.781Z,1014.99
2022-12-04T11:03:28.708Z,1014.95
2022-12-04T11:04:28.645Z,1014.93
2022-12-04T11:05:28.654Z,1014.94
2022-12-04T11:06:28.662Z,1014.96
2022-12-04T11:07:28.688Z,1014.94
2022-12-04T11:08:28.736Z,1014.95
2022-12-04T11:09:28.687Z,1014.90
2022-12-04T11:10:28.712Z,1014.88
2022-12-04T11:11:28.704Z,1014.87
2022-12-04T11:12:28.712Z,1014.84
2022-12-04T11:13:28.720Z,1014.84
2022-12-04T11:14:28.729Z,1014.85
2022-12-04T11:15:28.736Z,1014.82
2022-12-04T11:16:28.812Z,1014.85
2022-12-04T11:17:28.752Z,1014.84
2022-12-04T11:18:28.761Z,1014.84
2022-12-04T11:19:28.779Z,1014.83
2022-12-04T11:20:28.780Z,1014.82
2022-12-04T11:21:28.786Z,1014.80
2022-12-04T11:22:28.796Z,1014.81
2022-12-04T11:23:28.804Z,1014.78
2022-12-04T11:24:28.811Z,1014.78
2022-12-04T11:25:28.820Z,1014.81
2022-12-04T11:26:28.829Z,1014.84
2022-12-04T11:27:28.837Z,1014.78
2022-12-04T11:28:41.018Z,1014.74
2022-12-04T11:29:28.853Z,1014.74
2022-12-04T11:30:28.861Z,1014.73
2022-12-04T11:31:28.941Z,1014.79
2022-12-04T11:32:28.882Z,1014.76
2022-12-04T11:33:28.885Z,1014.76
2022-12-04T11:34:28.894Z,1014.77
2022-12-04T11:35:28.903Z,1014.78
2022-12-04T11:36:28.912Z,1014.73
2022-12-04T11:37:28.925Z,1014.70
2022-12-04T11:38:28.929Z,1014.72
2022-12-04T11:39:28.936Z,1014.70
2022-12-04T11:40:28.947Z,1014.77
2022-12-04T11:41:28.953Z,1014.72
2022-12-04T11:42:28.961Z,1014.73
2022-12-04T11:43:28.971Z,1014.74
2022-12-04T11:44:28.981Z,1014.78
2022-12-04T11:45:28.987Z,1014.74
2022-12-04T11:46:29.026Z,1014.77
2022-12-04T11:47:29.003Z,1014.77
2022-12-04T11:48:29.013Z,1014.73
2022-12-04T11:49:29.020Z,1014.68
2022-12-04T11:50:29.031Z,1014.63
2022-12-04T11:51:29.038Z,1014.60
2022-12-04T11:52:29.047Z,1014.60
2022-12-04T11:53:29.053Z,1014.60
2022-12-04T11:54:29.070Z,1014.58
2022-12-04T11:55:29.628Z,1014.58
2022-12-04T11:56:29.078Z,1014.54
2022-12-04T11:57:29.089Z,1014.58
2022-12-04T11:58:29.096Z,1014.52
2022-12-04T11:59:29.107Z,1014.56
2022-12-04T12:00:29.114Z,1014.55
2022-12-04T12:01:29.119Z,1014.52
2022-12-04T12:02:29.272Z,1014.50
2022-12-04T12:03:29.231Z,1014.44
2022-12-04T12:04:29.157Z,1014.49
2022-12-04T12:05:29.154Z,1014.48